Share

Uppsala, Sverige

Sundvedatorp (IMRSTAMR2) Elev 95 ft | 59.63 °N, 17.82 °E | Change Station

Current weather conditions updated 1 second ago

Clear
Klart
56.8 °F
Feels Like 56.8 °F
N
2.9
Vind Växlande Vind from Västlig
Gusts 6.9 miles/tim
Soluppgång 5:22 AM
Solnedgång 8:16 PM
Månen Tredje kvarteret

Today is forecast to be Warmer than yesterday.

Lufttryck 30.30 tum
Sikt -9999.0 miles
Molnigt
Daggpunkt 43 °F
Luftfuktighet 59%
Rainfall 0.01 tum
Snow Depth Not available.
UV Not available.
Pollen Not available.
Air Quality Not available.
Flu Activity Not available.
METAR ESSA 191150Z 25007KT CAVOK 13/05 Q1026 R88/19//95 NOSIG

More Conditions Fewer Conditions

Lufttryck 30.30 tum
Sikt -9999.0 miles
Molnigt
Daggpunkt 43 °F
Luftfuktighet 59%
Rainfall 0.01 tum
Snow Depth Not available.
UV Not available.
Pollen Not available.
Air Quality Not available.
Flu Activity Not available.
METAR ESSA 191150Z 25007KT CAVOK 13/05 Q1026 R88/19//95 NOSIG

More Conditions Fewer Conditions

10-Day Weather Forecast

Almanac

Astronomi

Apr. 19, 2014 Rise Set
Actual Time 5:22 AM CEST 8:16 PM CEST
Civil Twilight 4:35 AM CEST 9:04 PM CEST
Nautical Twilight 3:30 AM CEST 10:09 PM CEST
Astronomical Twilight 1:49 AM CEST 11:58 PM CEST
Månen 12:19 AM CEST 7:45 AM CEST
Length Of Visible Light 16h 29m
Dagens längd
14h 54m
Tomorrow will be 5m 21s longer.
Tredje kvarteret, 80% of the Moon is Illuminated
Idag
Tredje kvarteret
Apr 22
Sista kvarteret
Apr 29
New
May 6
Första kvarteret
May 14
Fullmåne

Yesterday's Extremes

Country Highs Country Lows

Community

  • Bleeding Hearts
    Bleeding Hearts
  • Sunset Silhouettes
    Sunset Silhouettes
  • FL sunset Perico Isle
    FL sunset Perico Isle
  • Cloudy spring view
    Cloudy spring view
  • Old barn
    Old barn

WunderPhotos

Upload Photos

1,702,687 photos uploaded!

Nearby

Snödjup

Not available.

Coastal Water Temperatures

Plats Temperatur
No Stations Reporting

Earthquake Activity

Stad Distance Mag. Time & Date
No recent earthquake activity has been reported nearby.
Minimum magnitude displayed is 2.5.

Nearby Weather Stations

Station Location Temp Daggpunkt Luftfuktighet Vind Precip. Elev Uppdaterad Type
Kuggebro, Uppsala 56.8 °F - - S/SV  -  5.8 miles/tim 0.00 tum / hr 30 ft 1:57 PM CEST Normal
Sundvedatorp, Marsta 56.8 °F 43 °F 59% Västlig  -  2.9 miles/tim 0.00 tum / hr 95 ft 1:57 PM CEST Rapid Fire
Close to Arlanda Airport, Kattsta 57.4 °F 45 °F 55% NV  -  5.4 miles/tim 0.00 tum / hr 64 ft 1:44 PM CEST Normal

Show More Stations Show Fewer Stations

What do you think?

We're not finished. Please let us know what you like, what you don't like, and what you are still missing.